createdAt,value
2022-09-15T00:02:22.116Z,3.67
2022-09-15T00:04:48.668Z,4.28
2022-09-15T00:07:15.782Z,3.58
2022-09-15T00:09:42.589Z,3.85
2022-09-15T00:12:09.173Z,3.30
2022-09-15T00:14:35.903Z,3.67
2022-09-15T00:17:02.396Z,3.03
2022-09-15T00:19:28.860Z,3.33
2022-09-15T00:21:55.286Z,2.95
2022-09-15T00:24:22.989Z,3.30
2022-09-15T00:26:49.515Z,2.78
2022-09-15T00:29:15.983Z,3.60
2022-09-15T00:31:42.391Z,3.00
2022-09-15T00:34:12.072Z,3.25
2022-09-15T00:36:38.660Z,3.38
2022-09-15T00:39:05.533Z,3.88
2022-09-15T00:41:31.970Z,3.72
2022-09-15T00:44:18.223Z,3.17
2022-09-15T00:47:15.290Z,3.58
2022-09-15T00:49:40.317Z,3.47
2022-09-15T00:52:16.132Z,3.28
2022-09-15T00:55:03.786Z,3.65
2022-09-15T00:57:37.016Z,3.30
2022-09-15T01:00:08.351Z,3.45
2022-09-15T01:02:35.770Z,4.40
2022-09-15T01:05:05.574Z,3.15
2022-09-15T01:07:40.143Z,3.60
2022-09-15T01:10:12.284Z,2.97
2022-09-15T01:12:41.483Z,3.45
2022-09-15T01:15:08.782Z,3.60
2022-09-15T01:17:45.432Z,2.90
2022-09-15T01:20:56.349Z,3.33
2022-09-15T01:23:40.920Z,3.40
2022-09-15T01:26:34.502Z,3.40
2022-09-15T01:29:39.067Z,3.50
2022-09-15T01:32:48.296Z,3.22
2022-09-15T01:35:33.770Z,3.08
2022-09-15T01:38:24.742Z,3.05
2022-09-15T01:41:02.049Z,3.17
2022-09-15T01:43:29.704Z,3.15
2022-09-15T01:45:58.680Z,2.92
2022-09-15T01:48:28.204Z,3.03
2022-09-15T01:50:57.762Z,3.20
2022-09-15T01:53:24.580Z,3.33
2022-09-15T01:56:05.151Z,2.90
2022-09-15T01:58:32.800Z,3.38
2022-09-15T02:01:05.772Z,3.58
2022-09-15T02:03:51.479Z,3.85
2022-09-15T02:06:40.771Z,3.75
2022-09-15T02:09:17.958Z,3.85
2022-09-15T02:12:03.656Z,3.25
2022-09-15T02:14:55.907Z,3.60
2022-09-15T02:17:23.892Z,3.50
2022-09-15T02:19:57.396Z,3.30
2022-09-15T02:22:33.085Z,3.25
2022-09-15T02:25:07.180Z,3.70
2022-09-15T02:27:37.817Z,3.70
2022-09-15T02:30:09.490Z,3.63
2022-09-15T02:32:38.774Z,3.13
2022-09-15T02:35:08.330Z,3.88
2022-09-15T02:37:37.354Z,3.42
2022-09-15T02:40:05.860Z,3.65
2022-09-15T02:42:33.524Z,3.30
2022-09-15T02:45:00.772Z,3.50
2022-09-15T02:47:28.516Z,4.00
2022-09-15T02:49:55.663Z,3.97
2022-09-15T02:52:24.302Z,4.18
2022-09-15T02:54:50.720Z,3.92
2022-09-15T02:57:17.226Z,3.67
2022-09-15T03:00:04.392Z,3.90
2022-09-15T03:02:30.990Z,3.97
2022-09-15T03:04:57.540Z,3.72
2022-09-15T03:07:25.021Z,4.38
2022-09-15T03:09:51.656Z,3.95
2022-09-15T03:12:18.099Z,3.38
2022-09-15T03:14:45.347Z,3.45
2022-09-15T03:17:12.713Z,3.95
2022-09-15T03:19:39.124Z,3.90
2022-09-15T03:22:05.628Z,4.22
2022-09-15T03:24:32.076Z,3.70
2022-09-15T03:26:59.763Z,3.92
2022-09-15T03:29:26.269Z,4.13
2022-09-15T03:31:52.790Z,3.70
2022-09-15T03:34:20.341Z,3.58
2022-09-15T03:36:46.847Z,3.78
2022-09-15T03:39:13.404Z,3.78
2022-09-15T03:41:39.831Z,3.20
2022-09-15T03:44:06.242Z,3.25
2022-09-15T03:46:32.934Z,3.10
2022-09-15T03:48:59.348Z,3.83
2022-09-15T03:51:25.786Z,4.05
2022-09-15T03:53:52.422Z,3.95
2022-09-15T03:56:26.047Z,4.07
2022-09-15T03:58:53.314Z,3.70
2022-09-15T04:01:21.155Z,3.78
2022-09-15T04:03:51.150Z,3.50
2022-09-15T04:06:19.404Z,3.70
2022-09-15T04:08:46.075Z,3.47
2022-09-15T04:11:13.874Z,3.25
2022-09-15T04:13:41.980Z,3.50
2022-09-15T04:16:11.972Z,4.55
2022-09-15T04:18:38.427Z,4.07
2022-09-15T04:21:07.480Z,4.60
2022-09-15T04:23:35.648Z,4.40
2022-09-15T04:26:05.472Z,3.90
2022-09-15T04:28:35.995Z,4.13
2022-09-15T04:31:05.443Z,3.67
2022-09-15T04:33:32.372Z,4.32
2022-09-15T04:36:04.117Z,4.15
2022-09-15T04:38:31.607Z,5.75
2022-09-15T04:41:00.042Z,3.67
2022-09-15T04:43:27.218Z,4.72
2022-09-15T04:45:54.286Z,5.05
2022-09-15T04:48:21.687Z,4.88
2022-09-15T04:50:48.437Z,4.80
2022-09-15T04:53:15.750Z,5.15
2022-09-15T04:55:42.518Z,4.07
2022-09-15T04:58:09.190Z,4.75
2022-09-15T05:00:46.127Z,4.38
2022-09-15T05:03:14.046Z,4.50
2022-09-15T05:05:42.356Z,5.55
2022-09-15T05:08:08.813Z,5.85
2022-09-15T05:10:35.482Z,5.88
2022-09-15T05:13:01.890Z,6.10
2022-09-15T05:15:29.750Z,6.00
2022-09-15T05:17:56.158Z,6.53
2022-09-15T05:20:22.896Z,6.10
2022-09-15T05:22:49.308Z,6.30
2022-09-15T05:25:16.903Z,6.57
2022-09-15T05:27:43.499Z,6.40
2022-09-15T05:30:35.903Z,6.90
2022-09-15T05:32:57.091Z,6.93
2022-09-15T05:35:23.625Z,6.93
2022-09-15T05:37:50.324Z,7.10
2022-09-15T05:40:16.890Z,7.47
2022-09-15T05:42:43.336Z,6.75
2022-09-15T05:45:10.259Z,6.90
2022-09-15T05:47:36.746Z,6.47
2022-09-15T05:50:03.232Z,6.38
2022-09-15T05:52:29.687Z,5.28
2022-09-15T05:54:59.132Z,6.07
2022-09-15T05:57:25.866Z,5.45
2022-09-15T05:59:52.395Z,6.03
2022-09-15T06:02:19.046Z,5.28
2022-09-15T06:04:45.595Z,5.22
2022-09-15T06:07:12.371Z,5.00
2022-09-15T06:09:39.319Z,5.22
2022-09-15T06:12:05.994Z,4.93
2022-09-15T06:14:33.640Z,4.20
2022-09-15T06:17:00.079Z,4.20
2022-09-15T06:19:26.505Z,4.10
2022-09-15T06:21:53.998Z,4.38
2022-09-15T06:24:20.458Z,3.80
2022-09-15T06:26:47.214Z,3.78
2022-09-15T06:29:13.757Z,3.58
2022-09-15T06:31:40.474Z,3.72
2022-09-15T06:34:08.569Z,3.97
2022-09-15T06:36:37.588Z,3.60
2022-09-15T06:39:04.597Z,3.70
2022-09-15T06:41:52.485Z,3.55
2022-09-15T06:44:18.376Z,3.83
2022-09-15T06:46:44.887Z,3.08
2022-09-15T06:49:11.312Z,3.70
2022-09-15T06:51:38.076Z,3.58
2022-09-15T06:54:05.602Z,3.30
2022-09-15T06:56:35.866Z,3.35
2022-09-15T06:59:04.435Z,3.53
2022-09-15T07:01:32.280Z,3.58
2022-09-15T07:04:01.197Z,3.10
2022-09-15T07:06:29.357Z,2.85
2022-09-15T07:08:56.649Z,3.20
2022-09-15T07:11:23.183Z,3.10
2022-09-15T07:13:49.999Z,3.17
2022-09-15T07:16:18.189Z,2.88
2022-09-15T07:18:48.689Z,3.40
2022-09-15T07:21:19.897Z,2.90
2022-09-15T07:23:47.544Z,3.03
2022-09-15T07:26:15.007Z,2.53
2022-09-15T07:28:43.896Z,2.90
2022-09-15T07:31:13.343Z,2.92
2022-09-15T07:33:39.820Z,2.92
2022-09-15T07:36:08.043Z,2.85
2022-09-15T07:38:35.182Z,2.85
2022-09-15T07:41:12.496Z,2.80
2022-09-15T07:43:39.528Z,3.22
2022-09-15T07:46:06.216Z,2.78
2022-09-15T07:48:32.960Z,2.85
2022-09-15T07:50:59.951Z,3.28
2022-09-15T07:53:30.590Z,3.05
2022-09-15T07:55:57.647Z,2.88
2022-09-15T07:58:24.805Z,2.63
2022-09-15T08:00:51.290Z,2.78
2022-09-15T08:03:17.919Z,2.70
2022-09-15T08:05:45.822Z,2.60
2022-09-15T08:08:12.874Z,2.67
2022-09-15T08:10:41.067Z,2.45
2022-09-15T08:13:07.625Z,2.53
2022-09-15T08:15:36.987Z,2.30
2022-09-15T08:18:03.757Z,2.40
2022-09-15T08:20:31.441Z,2.65
2022-09-15T08:22:58.143Z,2.47
2022-09-15T08:25:24.581Z,2.40
2022-09-15T08:27:52.711Z,2.42
2022-09-15T08:30:19.121Z,2.22
2022-09-15T08:32:46.852Z,2.20
2022-09-15T08:35:14.922Z,2.00
2022-09-15T08:37:41.664Z,2.00
2022-09-15T08:40:16.841Z,2.20
2022-09-15T08:42:46.753Z,2.05
2022-09-15T08:45:23.222Z,1.88
2022-09-15T08:47:55.964Z,2.10
2022-09-15T08:50:33.893Z,1.90
2022-09-15T08:53:06.899Z,2.60
2022-09-15T08:55:41.476Z,2.10
2022-09-15T08:58:15.100Z,2.10
2022-09-15T09:00:45.668Z,2.20
2022-09-15T09:03:41.023Z,2.20
2022-09-15T09:06:21.184Z,2.10
2022-09-15T09:09:20.271Z,2.42
2022-09-15T09:12:29.545Z,2.35
2022-09-15T09:15:16.049Z,2.13
2022-09-15T09:18:19.641Z,1.63
2022-09-15T09:21:03.041Z,1.60
2022-09-15T09:23:32.945Z,1.90
2022-09-15T09:26:01.874Z,1.55
2022-09-15T09:28:37.982Z,1.30
2022-09-15T09:31:07.800Z,1.50
2022-09-15T09:33:47.265Z,1.33
2022-09-15T09:36:14.559Z,1.20
2022-09-15T09:38:45.161Z,1.30
2022-09-15T09:41:17.805Z,1.75
2022-09-15T09:43:47.381Z,1.55
2022-09-15T09:46:16.327Z,1.23
2022-09-15T09:48:56.343Z,1.40
2022-09-15T09:51:37.775Z,1.25
2022-09-15T09:54:12.656Z,1.20
2022-09-15T09:56:39.778Z,1.42
2022-09-15T09:59:28.331Z,1.25
2022-09-15T10:02:20.644Z,1.30
2022-09-15T10:05:06.745Z,1.10
2022-09-15T10:07:34.445Z,1.05
2022-09-15T10:10:02.167Z,1.20
2022-09-15T10:12:32.007Z,0.90
2022-09-15T10:15:02.468Z,1.15
2022-09-15T10:17:46.772Z,1.05
2022-09-15T10:20:28.171Z,1.10
2022-09-15T10:23:09.772Z,1.05
2022-09-15T10:25:58.152Z,1.52
2022-09-15T10:28:27.240Z,1.20
2022-09-15T10:31:13.675Z,1.20
2022-09-15T10:33:44.969Z,1.27
2022-09-15T10:36:13.059Z,1.17
2022-09-15T10:38:41.806Z,1.30
2022-09-15T10:41:27.809Z,1.23
2022-09-15T10:44:07.989Z,1.48
2022-09-15T10:47:08.815Z,1.00
2022-09-15T10:50:13.797Z,1.10
2022-09-15T10:53:06.067Z,1.10
2022-09-15T10:55:52.776Z,1.10
2022-09-15T10:58:47.295Z,1.00
2022-09-15T11:01:31.249Z,1.13
2022-09-15T11:04:31.333Z,1.25
2022-09-15T11:07:09.240Z,1.27
2022-09-15T11:09:45.605Z,1.40
2022-09-15T11:12:39.873Z,1.27
2022-09-15T11:15:30.859Z,1.45
2022-09-15T11:18:08.748Z,1.20
2022-09-15T11:20:41.765Z,1.58
2022-09-15T11:23:20.096Z,1.30
2022-09-15T11:25:54.928Z,1.20
2022-09-15T11:28:40.477Z,1.40
2022-09-15T11:31:16.639Z,1.40
2022-09-15T11:34:11.769Z,0.80
2022-09-15T11:36:47.213Z,1.20
2022-09-15T11:39:23.951Z,1.10
2022-09-15T11:42:01.101Z,1.55
2022-09-15T11:47:30.435Z,1.23
2022-09-15T11:50:03.432Z,1.10
2022-09-15T11:53:18.183Z,1.02
2022-09-15T11:56:13.822Z,1.00
2022-09-15T11:59:01.597Z,1.10
2022-09-15T12:01:35.568Z,1.10
2022-09-15T12:04:31.841Z,1.70
2022-09-15T12:07:06.235Z,1.35
2022-09-15T12:09:35.377Z,1.33
2022-09-15T12:12:08.404Z,1.55
2022-09-15T12:14:44.814Z,1.20
2022-09-15T12:17:29.702Z,1.50
2022-09-15T12:20:07.537Z,1.17
2022-09-15T12:22:48.855Z,1.50
2022-09-15T12:25:29.309Z,1.20
2022-09-15T12:28:26.965Z,1.08
2022-09-15T12:31:25.634Z,1.55
2022-09-15T12:33:54.674Z,1.00
2022-09-15T12:36:36.678Z,1.40
2022-09-15T12:39:06.155Z,1.08
2022-09-15T12:41:33.172Z,0.90
2022-09-15T12:44:14.409Z,1.20
2022-09-15T12:46:41.310Z,1.10
2022-09-15T12:49:17.886Z,1.08
2022-09-15T12:51:49.811Z,1.10
2022-09-15T12:54:27.127Z,1.20
2022-09-15T12:56:54.627Z,1.10
2022-09-15T12:59:27.885Z,1.13
2022-09-15T13:01:55.924Z,1.10
2022-09-15T13:04:40.849Z,1.30
2022-09-15T13:07:16.204Z,1.10
2022-09-15T13:09:56.756Z,1.02
2022-09-15T13:12:26.431Z,1.10
2022-09-15T13:14:55.853Z,1.45
2022-09-15T13:17:25.507Z,1.00
2022-09-15T13:20:00.067Z,0.90
2022-09-15T13:22:32.015Z,1.20
2022-09-15T13:25:16.866Z,1.10
2022-09-15T13:27:45.786Z,0.90
2022-09-15T13:30:30.947Z,1.20
2022-09-15T13:33:13.460Z,1.20
2022-09-15T13:36:00.548Z,1.30
2022-09-15T13:39:07.952Z,0.90
2022-09-15T13:42:05.826Z,0.80
2022-09-15T13:44:46.357Z,1.00
2022-09-15T13:47:33.479Z,0.73
2022-09-15T13:50:18.590Z,0.90
2022-09-15T13:53:33.591Z,1.00
2022-09-15T13:56:05.914Z,1.63
2022-09-15T14:01:22.897Z,1.20
2022-09-15T14:03:53.651Z,1.10
2022-09-15T14:08:57.032Z,1.13
2022-09-15T14:11:28.646Z,0.85
2022-09-15T14:13:57.057Z,0.90
2022-09-15T14:16:34.936Z,0.70
2022-09-15T14:19:05.925Z,0.88
2022-09-15T14:21:34.476Z,1.10
2022-09-15T14:24:06.328Z,0.90
2022-09-15T14:26:35.587Z,1.00
2022-09-15T14:29:07.045Z,0.68
2022-09-15T14:31:39.294Z,0.75
2022-09-15T14:34:09.727Z,1.08
2022-09-15T14:36:36.267Z,0.80
2022-09-15T14:39:08.961Z,0.80
2022-09-15T14:41:36.612Z,0.82
2022-09-15T14:47:25.366Z,0.90
2022-09-15T14:50:09.719Z,0.80
2022-09-15T14:52:40.842Z,0.80
2022-09-15T14:55:18.872Z,0.80
2022-09-15T14:57:55.505Z,1.05
2022-09-15T15:00:27.329Z,1.33
2022-09-15T15:03:08.986Z,1.10
2022-09-15T15:05:40.593Z,0.90
2022-09-15T15:08:10.060Z,1.17
2022-09-15T15:10:37.107Z,1.50
2022-09-15T15:13:09.498Z,1.15
2022-09-15T15:15:37.868Z,1.20
2022-09-15T15:18:07.360Z,0.82
2022-09-15T15:20:33.792Z,0.70
2022-09-15T15:23:32.822Z,0.80
2022-09-15T15:26:26.852Z,0.57
2022-09-15T15:28:53.537Z,1.17
2022-09-15T15:31:26.679Z,0.50
2022-09-15T15:33:59.703Z,0.55
2022-09-15T15:36:28.467Z,0.73
2022-09-15T15:38:57.497Z,0.65
2022-09-15T15:41:27.183Z,0.82
2022-09-15T15:44:03.119Z,0.68
2022-09-15T15:46:53.234Z,0.70
2022-09-15T15:49:21.287Z,0.90
2022-09-15T15:51:48.804Z,0.80
2022-09-15T15:54:15.268Z,0.60
2022-09-15T15:56:41.866Z,0.82
2022-09-15T15:59:12.492Z,0.57
2022-09-15T16:01:39.544Z,0.57
2022-09-15T16:04:10.982Z,0.73
2022-09-15T16:06:37.763Z,0.60
2022-09-15T16:09:05.880Z,0.70
2022-09-15T16:11:32.335Z,0.70
2022-09-15T16:13:59.289Z,0.70
2022-09-15T16:16:27.501Z,0.80
2022-09-15T16:18:54.239Z,0.98
2022-09-15T16:21:37.085Z,0.75
2022-09-15T16:24:05.175Z,1.15
2022-09-15T16:26:31.722Z,0.60
2022-09-15T16:28:59.530Z,0.60
2022-09-15T16:31:25.998Z,0.80
2022-09-15T16:33:52.532Z,0.80
2022-09-15T16:36:19.124Z,0.52
2022-09-15T16:38:45.639Z,0.70
2022-09-15T16:41:18.116Z,0.80
2022-09-15T16:43:45.812Z,0.82
2022-09-15T16:46:13.481Z,0.63
2022-09-15T16:48:42.677Z,0.80
2022-09-15T16:51:29.759Z,0.73
2022-09-15T16:53:57.290Z,1.30
2022-09-15T16:56:23.750Z,1.40
2022-09-15T16:58:54.790Z,0.88
2022-09-15T17:01:25.225Z,1.00
2022-09-15T17:03:54.074Z,1.00
2022-09-15T17:06:21.932Z,0.90
2022-09-15T17:08:48.363Z,0.80
2022-09-15T17:11:17.391Z,1.38
2022-09-15T17:13:44.450Z,0.70
2022-09-15T17:16:13.136Z,0.75
2022-09-15T17:18:39.642Z,1.00
2022-09-15T17:21:06.315Z,0.80
2022-09-15T17:23:37.869Z,0.88
2022-09-15T17:26:09.018Z,0.95
2022-09-15T17:31:06.476Z,0.98
2022-09-15T17:33:33.326Z,1.10
2022-09-15T17:36:00.255Z,1.10
2022-09-15T17:38:27.290Z,1.10
2022-09-15T17:40:57.166Z,1.30
2022-09-15T17:43:27.875Z,0.98
2022-09-15T17:45:54.973Z,1.00
2022-09-15T17:48:22.511Z,1.27
2022-09-15T17:50:50.406Z,1.20
2022-09-15T17:53:26.709Z,1.25
2022-09-15T17:55:55.375Z,0.90
2022-09-15T17:58:23.090Z,1.20
2022-09-15T18:00:50.271Z,0.90
2022-09-15T18:03:33.143Z,1.17
2022-09-15T18:06:03.715Z,1.13
2022-09-15T18:08:30.807Z,1.40
2022-09-15T18:10:57.223Z,1.20
2022-09-15T18:13:30.177Z,1.00
2022-09-15T18:15:58.425Z,0.90
2022-09-15T18:18:26.944Z,1.67
2022-09-15T18:20:55.958Z,0.90
2022-09-15T18:23:27.262Z,1.10
2022-09-15T18:25:54.102Z,1.02
2022-09-15T18:28:20.699Z,1.10
2022-09-15T18:30:48.987Z,1.13
2022-09-15T18:33:17.690Z,0.90
2022-09-15T18:35:44.691Z,0.90
2022-09-15T18:38:11.766Z,1.20
2022-09-15T18:40:38.722Z,1.17
2022-09-15T18:43:05.614Z,1.08
2022-09-15T18:45:32.394Z,1.10
2022-09-15T18:48:01.547Z,1.13
2022-09-15T18:50:28.037Z,1.10
2022-09-15T18:52:54.594Z,1.13
2022-09-15T18:55:22.687Z,1.20
2022-09-15T18:57:49.303Z,1.17
2022-09-15T19:00:18.818Z,1.20
2022-09-15T19:02:45.734Z,1.77
2022-09-15T19:05:15.543Z,1.20
2022-09-15T19:07:43.900Z,1.17
2022-09-15T19:10:14.096Z,1.05
2022-09-15T19:12:40.831Z,1.20
2022-09-15T19:15:11.319Z,1.25
2022-09-15T19:17:39.409Z,1.23
2022-09-15T19:20:08.835Z,1.50
2022-09-15T19:22:35.888Z,1.23
2022-09-15T19:25:02.922Z,1.65
2022-09-15T19:27:31.900Z,1.50
2022-09-15T19:29:58.678Z,1.50
2022-09-15T19:32:25.074Z,1.40
2022-09-15T19:34:51.509Z,1.50
2022-09-15T19:37:20.373Z,1.30
2022-09-15T19:39:48.234Z,1.40
2022-09-15T19:44:41.846Z,1.15
2022-09-15T19:47:08.856Z,1.05
2022-09-15T19:49:36.478Z,1.00
2022-09-15T19:52:02.961Z,1.10
2022-09-15T19:54:30.478Z,1.40
2022-09-15T19:56:57.056Z,1.52
2022-09-15T19:59:28.676Z,1.30
2022-09-15T20:01:56.811Z,1.30
2022-09-15T20:04:23.406Z,1.65
2022-09-15T20:06:49.955Z,1.45
2022-09-15T20:09:16.549Z,1.20
2022-09-15T20:11:45.883Z,1.33
2022-09-15T20:14:12.333Z,1.48
2022-09-15T20:16:38.960Z,1.30
2022-09-15T20:19:06.438Z,1.20
2022-09-15T20:21:49.982Z,0.93
2022-09-15T20:24:17.903Z,1.13
2022-09-15T20:26:44.333Z,1.00
2022-09-15T20:29:10.911Z,1.20
2022-09-15T20:31:37.469Z,1.33
2022-09-15T20:34:03.883Z,1.10
2022-09-15T20:36:36.297Z,2.20
2022-09-15T20:39:04.927Z,1.83
2022-09-15T20:41:31.997Z,2.30
2022-09-15T20:43:58.490Z,3.28
2022-09-15T20:46:27.256Z,2.20
2022-09-15T20:48:56.079Z,1.52
2022-09-15T20:51:28.068Z,1.15
2022-09-15T20:53:56.853Z,1.20
2022-09-15T20:56:25.558Z,1.20
2022-09-15T20:58:53.555Z,1.25
2022-09-15T21:01:25.704Z,1.30
2022-09-15T21:03:53.329Z,1.20
2022-09-15T21:06:22.266Z,1.10
2022-09-15T21:08:50.027Z,0.90
2022-09-15T21:11:19.384Z,1.08
2022-09-15T21:13:48.294Z,1.08
2022-09-15T21:16:18.455Z,1.23
2022-09-15T21:18:45.674Z,1.00
2022-09-15T21:21:17.503Z,1.17
2022-09-15T21:23:56.227Z,1.40
2022-09-15T21:26:25.210Z,1.20
2022-09-15T21:28:52.750Z,1.40
2022-09-15T21:31:24.422Z,1.60
2022-09-15T21:33:52.077Z,1.15
2022-09-15T21:36:22.263Z,1.20
2022-09-15T21:38:51.028Z,1.20
2022-09-15T21:41:20.831Z,1.20
2022-09-15T21:43:48.339Z,1.20
2022-09-15T21:46:20.185Z,1.55
2022-09-15T21:48:48.004Z,1.38
2022-09-15T21:51:23.502Z,1.25
2022-09-15T21:53:52.130Z,1.40
2022-09-15T21:56:18.878Z,1.20
2022-09-15T21:58:45.516Z,1.35
2022-09-15T22:01:23.474Z,1.23
2022-09-15T22:04:05.298Z,1.40
2022-09-15T22:06:34.443Z,1.30
2022-09-15T22:09:03.310Z,1.45
2022-09-15T22:11:29.819Z,1.48
2022-09-15T22:13:56.393Z,1.20
2022-09-15T22:16:24.669Z,1.30
2022-09-15T22:18:51.788Z,1.35
2022-09-15T22:21:20.432Z,1.27
2022-09-15T22:23:48.317Z,1.20
2022-09-15T22:26:21.067Z,1.40
2022-09-15T22:28:47.527Z,1.40
2022-09-15T22:31:15.759Z,1.40
2022-09-15T22:33:44.769Z,1.50
2022-09-15T22:36:26.605Z,1.52
2022-09-15T22:38:56.095Z,1.40
2022-09-15T22:41:25.901Z,1.60
2022-09-15T22:43:53.279Z,1.35
2022-09-15T22:46:20.111Z,2.33
2022-09-15T22:48:47.279Z,1.33
2022-09-15T22:51:14.739Z,1.60
2022-09-15T22:53:41.556Z,1.38
2022-09-15T22:56:14.848Z,1.38
2022-09-15T22:58:43.850Z,1.27
2022-09-15T23:01:16.210Z,1.55
2022-09-15T23:03:47.385Z,1.50
2022-09-15T23:06:14.256Z,1.30
2022-09-15T23:08:41.042Z,1.40
2022-09-15T23:11:12.444Z,1.40
2022-09-15T23:13:39.677Z,1.48
2022-09-15T23:16:07.182Z,1.17
2022-09-15T23:18:34.904Z,1.75
2022-09-15T23:21:04.061Z,1.42
2022-09-15T23:23:30.515Z,1.42
2022-09-15T23:25:57.023Z,1.63
2022-09-15T23:28:23.993Z,1.20
2022-09-15T23:30:55.406Z,1.33
2022-09-15T23:35:50.047Z,1.08
2022-09-15T23:38:18.230Z,1.30
2022-09-15T23:40:45.536Z,1.55
2022-09-15T23:43:14.207Z,1.05
2022-09-15T23:45:41.272Z,1.20
2022-09-15T23:48:08.285Z,1.30
2022-09-15T23:50:35.975Z,1.10
2022-09-15T23:53:02.851Z,1.40
2022-09-15T23:55:30.536Z,1.40
2022-09-15T23:57:56.964Z,1.33
